Main page
METAR-TAF:

METAR-TAF

Airports :

Almagro, Spain

latitude: 38-57-11N, longitude: 3-44-29W, elevation: 629 m

Current weather observation

The report was made 6 hours and 44 minutes ago, at 21:00 UTC
Wind 3 kt from the East/Northeast, varying between North and South/Southeast
Temperature 18°C
Humidity 37%
Pressure 1022 hPa
Visibility 10 km or more
no clouds below 1500 m and no cumulonimbus

METAR: LEAO 192100Z 06003KT 010V150 CAVOK 18/03 Q1022

Time: 05:44 (03:44 UTC)

Forecast

The report was made 10 hours and 44 minutes ago, at 17:00 UTC
Forecast valid from 19 at 18 UTC to 20 at 03 UTC
Wind 5 kt from variable directions
Visibility 10 km or more
no clouds below 1500 m and no cumulonimbus

TAF: LEAO 191700Z 1918/2003 VRB05KT CAVOK

Weather observations and forecasts of more than 4000 airports (METAR and TAF reports).

The available stations are represented by yellow and red dots on the map.

Hover mouse over dot to see the name of the station.

Then click to see weather observations and forecasts.

To change the map : click on the green buttons with a black cross to zoom in, on the green button with a dash to zoom out, or on the green arrows for adjacent maps.


METAR-TAF: